Captain Cook, HI

5:11 PM HST on January 25, 2015 (GMT -1000)
Captain Cook | Change Station
CLOSE
Current Station
Personal Weather Station
Location: Captain Cook, HI
Elevation: 915 ft
Nearby Weather Stations
Active Advisory: High Surf Advisory

Elev 915 ft 19.31 °N, 155.88 °W | Updated 10 minutes ago

Overcast
Overcast
71.0 °F
Feels Like 71.0 °F
N
2.0
Wind Variable Wind from SW
Gusts 5.0 mph

Today
High -- | Low -- °F
--% Chance of Precip.
Yesterday
High -- | Low -- °F
Precip. -- in
6:59 AM 6:12 PM
Waxing Crescent, 38% visible
Pressure 29.91 in
Visibility 10.0 miles
Clouds Few 4000 ft
Overcast 6000 ft
Dew Point 66 °F
Humidity 85%
Rainfall 0.00 in
Snow Depth Not available.
UV 0.0 out of 12
Pollen Not available.
Air Quality Not available.
Flu Activity Not available.
METAR PHKO 260253Z 33009KT 10SM FEW040 OVC060 27/19 A2990 RMK AO2 SLP126 T02670194 55003 $

More Conditions Fewer Conditions

Pressure 29.91 in
Visibility 10.0 miles
Clouds Few 4000 ft
Overcast 6000 ft
Dew Point 66 °F
Humidity 85%
Rainfall 0.00 in
Snow Depth Not available.
UV 0.0 out of 12
Pollen Not available.
Air Quality Not available.
Flu Activity Not available.
METAR PHKO 260253Z 33009KT 10SM FEW040 OVC060 27/19 A2990 RMK AO2 SLP126 T02670194 55003 $

More Conditions Fewer Conditions

10-Day Weather Forecast

Almanac

Astronomy

Jan. 25, 2015 Rise Set
Actual Time
Civil Twilight
Nautical Twilight
Astronomical Twilight
Moon
Length of Visible Light
Length of Day
Tomorrow will be .
, % of the Moon is Illuminated

Today's Extremes

State Highs State Lows

Community

WunderPhotos

Upload Photos

1,790,087 photos uploaded!

WunderBlogs® & News

Nearby

Air Quality

  Air Quality AQ Index Pollutant
Not available.

Snow Depth

Station Depth Elevation

Earthquake Activity

City Distance Mag. Time & Date
Minimum magnitude displayed is 2.5.

Coastal Water Temperatures

Place Temperature

Nearby Weather Stations